sensor_id;sensor_type;location;lat;lon;timestamp;temperature;humidity
24412;DHT22;12544;46.760;15.942;2023-04-29T00:01:16;11.20;99.90
24412;DHT22;12544;46.760;15.942;2023-04-29T00:03:42;11.30;99.90
24412;DHT22;12544;46.760;15.942;2023-04-29T00:06:08;11.30;99.90
24412;DHT22;12544;46.760;15.942;2023-04-29T00:08:35;11.20;99.90
24412;DHT22;12544;46.760;15.942;2023-04-29T00:11:01;11.20;99.90
24412;DHT22;12544;46.760;15.942;2023-04-29T00:13:27;11.20;99.90
24412;DHT22;12544;46.760;15.942;2023-04-29T00:15:52;11.10;99.90
24412;DHT22;12544;46.760;15.942;2023-04-29T00:18:18;11.00;99.90
24412;DHT22;12544;46.760;15.942;2023-04-29T00:20:44;11.00;99.90
24412;DHT22;12544;46.760;15.942;2023-04-29T00:23:09;11.00;99.90
24412;DHT22;12544;46.760;15.942;2023-04-29T00:25:35;11.00;99.90
24412;DHT22;12544;46.760;15.942;2023-04-29T00:28:04;11.10;99.90
24412;DHT22;12544;46.760;15.942;2023-04-29T00:30:30;11.10;99.90
24412;DHT22;12544;46.760;15.942;2023-04-29T00:32:57;11.20;99.90
24412;DHT22;12544;46.760;15.942;2023-04-29T00:35:22;11.20;99.90
24412;DHT22;12544;46.760;15.942;2023-04-29T00:37:48;11.10;99.90
24412;DHT22;12544;46.760;15.942;2023-04-29T00:40:14;11.10;99.90
24412;DHT22;12544;46.760;15.942;2023-04-29T00:42:40;11.10;99.90
24412;DHT22;12544;46.760;15.942;2023-04-29T00:45:07;11.00;99.90
24412;DHT22;12544;46.760;15.942;2023-04-29T00:47:33;11.00;99.90
24412;DHT22;12544;46.760;15.942;2023-04-29T00:49:59;11.00;99.90
24412;DHT22;12544;46.760;15.942;2023-04-29T00:52:25;10.90;99.90
24412;DHT22;12544;46.760;15.942;2023-04-29T00:54:54;11.00;99.90
24412;DHT22;12544;46.760;15.942;2023-04-29T00:57:21;10.90;99.90
24412;DHT22;12544;46.760;15.942;2023-04-29T00:59:48;11.00;99.90
24412;DHT22;12544;46.760;15.942;2023-04-29T01:02:14;11.00;99.90
24412;DHT22;12544;46.760;15.942;2023-04-29T01:04:40;11.00;99.90
24412;DHT22;12544;46.760;15.942;2023-04-29T01:07:30;11.00;99.90
24412;DHT22;12544;46.760;15.942;2023-04-29T01:10:14;10.90;99.90
24412;DHT22;12544;46.760;15.942;2023-04-29T01:18:21;10.70;99.90
24412;DHT22;12544;46.760;15.942;2023-04-29T01:20:49;10.70;99.90
24412;DHT22;12544;46.760;15.942;2023-04-29T01:23:15;10.70;99.90
24412;DHT22;12544;46.760;15.942;2023-04-29T01:25:41;10.70;99.90
24412;DHT22;12544;46.760;15.942;2023-04-29T01:31:29;10.70;99.90
24412;DHT22;12544;46.760;15.942;2023-04-29T01:39:09;10.60;99.90
24412;DHT22;12544;46.760;15.942;2023-04-29T01:44:07;10.50;99.90
24412;DHT22;12544;46.760;15.942;2023-04-29T01:46:33;10.50;99.90
24412;DHT22;12544;46.760;15.942;2023-04-29T01:48:59;10.50;99.90
24412;DHT22;12544;46.760;15.942;2023-04-29T01:51:25;10.50;99.90
24412;DHT22;12544;46.760;15.942;2023-04-29T01:53:52;10.50;99.90
24412;DHT22;12544;46.760;15.942;2023-04-29T01:56:18;10.50;99.90
24412;DHT22;12544;46.760;15.942;2023-04-29T01:58:44;10.50;99.90
24412;DHT22;12544;46.760;15.942;2023-04-29T02:01:09;10.60;99.90
24412;DHT22;12544;46.760;15.942;2023-04-29T02:03:36;10.50;99.90
24412;DHT22;12544;46.760;15.942;2023-04-29T02:06:01;10.50;99.90
24412;DHT22;12544;46.760;15.942;2023-04-29T02:08:27;10.40;99.90
24412;DHT22;12544;46.760;15.942;2023-04-29T02:10:54;10.40;99.90
24412;DHT22;12544;46.760;15.942;2023-04-29T02:13:20;10.40;99.90
24412;DHT22;12544;46.760;15.942;2023-04-29T02:15:46;10.40;99.90
24412;DHT22;12544;46.760;15.942;2023-04-29T02:18:11;10.30;99.90
24412;DHT22;12544;46.760;15.942;2023-04-29T02:20:37;10.10;99.90
24412;DHT22;12544;46.760;15.942;2023-04-29T02:23:03;10.00;99.90
24412;DHT22;12544;46.760;15.942;2023-04-29T02:25:28;9.90;99.90
24412;DHT22;12544;46.760;15.942;2023-04-29T02:27:54;9.80;99.90
24412;DHT22;12544;46.760;15.942;2023-04-29T02:30:19;9.80;99.90
24412;DHT22;12544;46.760;15.942;2023-04-29T02:32:45;9.80;99.90
24412;DHT22;12544;46.760;15.942;2023-04-29T02:35:11;9.80;99.90
24412;DHT22;12544;46.760;15.942;2023-04-29T02:37:37;9.70;99.90
24412;DHT22;12544;46.760;15.942;2023-04-29T02:40:03;9.70;99.90
24412;DHT22;12544;46.760;15.942;2023-04-29T02:42:29;9.70;99.90
24412;DHT22;12544;46.760;15.942;2023-04-29T02:44:55;9.80;99.90
24412;DHT22;12544;46.760;15.942;2023-04-29T02:47:20;9.80;99.90
24412;DHT22;12544;46.760;15.942;2023-04-29T02:49:46;9.80;99.90
24412;DHT22;12544;46.760;15.942;2023-04-29T02:52:12;9.80;99.90
24412;DHT22;12544;46.760;15.942;2023-04-29T02:54:38;9.80;99.90
24412;DHT22;12544;46.760;15.942;2023-04-29T02:57:03;9.80;99.90
24412;DHT22;12544;46.760;15.942;2023-04-29T02:59:29;9.80;99.90
24412;DHT22;12544;46.760;15.942;2023-04-29T03:01:55;9.80;99.90
24412;DHT22;12544;46.760;15.942;2023-04-29T03:04:21;9.70;99.90
24412;DHT22;12544;46.760;15.942;2023-04-29T03:06:47;9.70;99.90
24412;DHT22;12544;46.760;15.942;2023-04-29T03:09:13;9.70;99.90
24412;DHT22;12544;46.760;15.942;2023-04-29T03:11:39;9.60;99.90
24412;DHT22;12544;46.760;15.942;2023-04-29T03:14:04;9.60;99.90
24412;DHT22;12544;46.760;15.942;2023-04-29T03:16:30;9.60;99.90
24412;DHT22;12544;46.760;15.942;2023-04-29T03:18:56;9.60;99.90
24412;DHT22;12544;46.760;15.942;2023-04-29T03:21:22;9.50;99.90
24412;DHT22;12544;46.760;15.942;2023-04-29T03:23:49;9.40;99.90
24412;DHT22;12544;46.760;15.942;2023-04-29T03:26:15;9.40;99.90
24412;DHT22;12544;46.760;15.942;2023-04-29T03:28:41;9.30;99.90
24412;DHT22;12544;46.760;15.942;2023-04-29T03:31:07;9.30;99.90
24412;DHT22;12544;46.760;15.942;2023-04-29T03:33:32;9.20;99.90
24412;DHT22;12544;46.760;15.942;2023-04-29T03:35:58;9.30;99.90
24412;DHT22;12544;46.760;15.942;2023-04-29T03:38:24;9.20;99.90
24412;DHT22;12544;46.760;15.942;2023-04-29T03:40:50;9.30;99.90
24412;DHT22;12544;46.760;15.942;2023-04-29T03:43:16;9.30;99.90
24412;DHT22;12544;46.760;15.942;2023-04-29T03:45:42;9.30;99.90
24412;DHT22;12544;46.760;15.942;2023-04-29T03:48:08;9.30;99.90
24412;DHT22;12544;46.760;15.942;2023-04-29T03:50:35;9.20;99.90
24412;DHT22;12544;46.760;15.942;2023-04-29T03:53:01;9.30;99.90
24412;DHT22;12544;46.760;15.942;2023-04-29T03:55:27;9.30;99.90
24412;DHT22;12544;46.760;15.942;2023-04-29T03:57:52;9.30;99.90
24412;DHT22;12544;46.760;15.942;2023-04-29T04:00:18;9.30;99.90
24412;DHT22;12544;46.760;15.942;2023-04-29T04:02:44;9.20;99.90
24412;DHT22;12544;46.760;15.942;2023-04-29T04:05:10;9.20;99.90
24412;DHT22;12544;46.760;15.942;2023-04-29T04:07:36;9.10;99.90
24412;DHT22;12544;46.760;15.942;2023-04-29T04:10:01;9.10;99.90
24412;DHT22;12544;46.760;15.942;2023-04-29T04:12:27;9.10;99.90
24412;DHT22;12544;46.760;15.942;2023-04-29T04:14:52;9.20;99.90
24412;DHT22;12544;46.760;15.942;2023-04-29T04:17:19;9.30;99.90
24412;DHT22;12544;46.760;15.942;2023-04-29T04:19:45;9.30;99.90
24412;DHT22;12544;46.760;15.942;2023-04-29T04:22:10;9.50;99.90
24412;DHT22;12544;46.760;15.942;2023-04-29T04:24:37;9.50;99.90
24412;DHT22;12544;46.760;15.942;2023-04-29T04:27:02;9.60;99.90
24412;DHT22;12544;46.760;15.942;2023-04-29T04:29:28;9.70;99.90
24412;DHT22;12544;46.760;15.942;2023-04-29T04:31:54;9.70;99.90
24412;DHT22;12544;46.760;15.942;2023-04-29T04:34:20;9.80;99.90
24412;DHT22;12544;46.760;15.942;2023-04-29T04:36:45;9.90;99.90
24412;DHT22;12544;46.760;15.942;2023-04-29T04:39:11;10.00;99.90
24412;DHT22;12544;46.760;15.942;2023-04-29T04:41:37;10.10;99.90
24412;DHT22;12544;46.760;15.942;2023-04-29T04:44:10;10.10;99.90
24412;DHT22;12544;46.760;15.942;2023-04-29T04:46:36;10.20;99.90
24412;DHT22;12544;46.760;15.942;2023-04-29T04:49:02;10.20;99.90
24412;DHT22;12544;46.760;15.942;2023-04-29T04:51:27;10.20;99.90
24412;DHT22;12544;46.760;15.942;2023-04-29T04:53:53;10.30;99.90
24412;DHT22;12544;46.760;15.942;2023-04-29T04:56:19;10.40;99.90
24412;DHT22;12544;46.760;15.942;2023-04-29T04:58:44;10.40;99.90
24412;DHT22;12544;46.760;15.942;2023-04-29T05:01:10;10.50;99.90
24412;DHT22;12544;46.760;15.942;2023-04-29T05:03:36;10.70;99.90
24412;DHT22;12544;46.760;15.942;2023-04-29T05:06:01;10.70;99.90
24412;DHT22;12544;46.760;15.942;2023-04-29T05:08:27;10.80;99.90
24412;DHT22;12544;46.760;15.942;2023-04-29T05:10:53;10.90;99.90
24412;DHT22;12544;46.760;15.942;2023-04-29T05:13:18;10.90;99.90
24412;DHT22;12544;46.760;15.942;2023-04-29T05:15:44;11.00;99.90
24412;DHT22;12544;46.760;15.942;2023-04-29T05:18:10;11.10;99.90
24412;DHT22;12544;46.760;15.942;2023-04-29T05:20:36;11.10;99.90
24412;DHT22;12544;46.760;15.942;2023-04-29T05:23:02;11.10;99.90
24412;DHT22;12544;46.760;15.942;2023-04-29T05:25:28;11.10;99.90
24412;DHT22;12544;46.760;15.942;2023-04-29T05:27:54;11.30;99.90
24412;DHT22;12544;46.760;15.942;2023-04-29T05:30:20;11.30;99.90
24412;DHT22;12544;46.760;15.942;2023-04-29T05:32:45;11.30;99.90
24412;DHT22;12544;46.760;15.942;2023-04-29T05:35:11;11.30;99.90
24412;DHT22;12544;46.760;15.942;2023-04-29T05:37:37;11.30;99.90
24412;DHT22;12544;46.760;15.942;2023-04-29T05:40:03;11.40;99.90
24412;DHT22;12544;46.760;15.942;2023-04-29T05:42:34;11.40;99.90
24412;DHT22;12544;46.760;15.942;2023-04-29T05:45:00;11.50;99.90
24412;DHT22;12544;46.760;15.942;2023-04-29T05:47:25;11.50;99.90
24412;DHT22;12544;46.760;15.942;2023-04-29T05:49:51;11.50;99.90
24412;DHT22;12544;46.760;15.942;2023-04-29T05:52:17;11.60;99.90
24412;DHT22;12544;46.760;15.942;2023-04-29T05:54:42;11.60;99.90
24412;DHT22;12544;46.760;15.942;2023-04-29T05:57:08;11.70;99.90
24412;DHT22;12544;46.760;15.942;2023-04-29T05:59:33;11.80;99.90
24412;DHT22;12544;46.760;15.942;2023-04-29T06:02:00;11.80;99.90
24412;DHT22;12544;46.760;15.942;2023-04-29T06:04:31;11.90;99.90
24412;DHT22;12544;46.760;15.942;2023-04-29T06:06:57;12.00;99.90
24412;DHT22;12544;46.760;15.942;2023-04-29T06:09:23;12.10;99.90
24412;DHT22;12544;46.760;15.942;2023-04-29T06:11:52;12.20;99.90
24412;DHT22;12544;46.760;15.942;2023-04-29T06:14:17;12.30;99.90
24412;DHT22;12544;46.760;15.942;2023-04-29T06:16:43;12.50;99.90
24412;DHT22;12544;46.760;15.942;2023-04-29T06:19:08;12.60;99.90
24412;DHT22;12544;46.760;15.942;2023-04-29T06:21:34;12.70;99.90
24412;DHT22;12544;46.760;15.942;2023-04-29T06:24:00;12.80;99.90
24412;DHT22;12544;46.760;15.942;2023-04-29T06:26:25;12.90;99.90
24412;DHT22;12544;46.760;15.942;2023-04-29T06:28:51;13.00;99.90
24412;DHT22;12544;46.760;15.942;2023-04-29T06:31:18;13.10;99.90
24412;DHT22;12544;46.760;15.942;2023-04-29T06:33:45;13.20;99.90
24412;DHT22;12544;46.760;15.942;2023-04-29T06:36:11;13.30;99.90
24412;DHT22;12544;46.760;15.942;2023-04-29T06:38:36;13.40;99.90
24412;DHT22;12544;46.760;15.942;2023-04-29T06:41:02;13.50;99.90
24412;DHT22;12544;46.760;15.942;2023-04-29T06:43:29;13.60;99.90
24412;DHT22;12544;46.760;15.942;2023-04-29T06:45:55;13.70;99.90
24412;DHT22;12544;46.760;15.942;2023-04-29T06:48:21;13.80;99.90
24412;DHT22;12544;46.760;15.942;2023-04-29T06:50:54;13.90;99.90
24412;DHT22;12544;46.760;15.942;2023-04-29T06:53:21;14.00;99.90
24412;DHT22;12544;46.760;15.942;2023-04-29T06:55:47;14.10;99.90
24412;DHT22;12544;46.760;15.942;2023-04-29T06:58:13;14.20;99.90
24412;DHT22;12544;46.760;15.942;2023-04-29T07:00:55;14.30;99.90
24412;DHT22;12544;46.760;15.942;2023-04-29T07:03:21;14.30;99.90
24412;DHT22;12544;46.760;15.942;2023-04-29T07:05:47;14.40;99.90
24412;DHT22;12544;46.760;15.942;2023-04-29T07:08:13;14.50;99.90
24412;DHT22;12544;46.760;15.942;2023-04-29T07:10:39;14.60;99.90
24412;DHT22;12544;46.760;15.942;2023-04-29T07:13:06;14.70;99.90
24412;DHT22;12544;46.760;15.942;2023-04-29T07:15:35;14.80;99.90
24412;DHT22;12544;46.760;15.942;2023-04-29T07:18:04;14.90;99.90
24412;DHT22;12544;46.760;15.942;2023-04-29T07:20:31;15.00;99.90
24412;DHT22;12544;46.760;15.942;2023-04-29T07:22:57;15.00;99.90
24412;DHT22;12544;46.760;15.942;2023-04-29T07:25:22;15.20;99.90
24412;DHT22;12544;46.760;15.942;2023-04-29T07:27:48;15.30;99.90
24412;DHT22;12544;46.760;15.942;2023-04-29T07:30:14;15.40;99.90
24412;DHT22;12544;46.760;15.942;2023-04-29T07:32:39;15.40;99.90
24412;DHT22;12544;46.760;15.942;2023-04-29T07:35:05;15.40;99.90
24412;DHT22;12544;46.760;15.942;2023-04-29T07:37:31;15.50;99.90
24412;DHT22;12544;46.760;15.942;2023-04-29T07:39:56;15.60;99.90
24412;DHT22;12544;46.760;15.942;2023-04-29T07:42:22;15.70;99.90
24412;DHT22;12544;46.760;15.942;2023-04-29T07:44:47;15.70;99.90
24412;DHT22;12544;46.760;15.942;2023-04-29T07:47:13;15.70;99.90
24412;DHT22;12544;46.760;15.942;2023-04-29T07:49:39;15.90;99.90
24412;DHT22;12544;46.760;15.942;2023-04-29T07:52:05;16.10;99.90
24412;DHT22;12544;46.760;15.942;2023-04-29T07:54:32;16.20;99.90
24412;DHT22;12544;46.760;15.942;2023-04-29T07:56:57;16.10;99.90
24412;DHT22;12544;46.760;15.942;2023-04-29T07:59:23;16.20;99.90
24412;DHT22;12544;46.760;15.942;2023-04-29T08:01:49;16.50;99.90
24412;DHT22;12544;46.760;15.942;2023-04-29T08:04:15;16.70;99.90
24412;DHT22;12544;46.760;15.942;2023-04-29T08:06:40;16.80;99.90
24412;DHT22;12544;46.760;15.942;2023-04-29T08:09:06;16.90;99.90
24412;DHT22;12544;46.760;15.942;2023-04-29T08:11:32;17.00;99.90
24412;DHT22;12544;46.760;15.942;2023-04-29T08:13:57;17.00;99.90
24412;DHT22;12544;46.760;15.942;2023-04-29T08:16:25;16.90;99.90
24412;DHT22;12544;46.760;15.942;2023-04-29T08:18:51;16.90;99.90
24412;DHT22;12544;46.760;15.942;2023-04-29T08:21:17;17.10;99.90
24412;DHT22;12544;46.760;15.942;2023-04-29T08:23:43;17.20;99.90
24412;DHT22;12544;46.760;15.942;2023-04-29T08:26:10;17.30;99.90
24412;DHT22;12544;46.760;15.942;2023-04-29T08:28:37;17.30;99.90
24412;DHT22;12544;46.760;15.942;2023-04-29T08:31:03;17.50;99.90
24412;DHT22;12544;46.760;15.942;2023-04-29T08:33:35;17.70;99.90
24412;DHT22;12544;46.760;15.942;2023-04-29T08:36:01;17.70;99.90
24412;DHT22;12544;46.760;15.942;2023-04-29T08:38:30;17.80;99.90
24412;DHT22;12544;46.760;15.942;2023-04-29T08:40:56;18.10;99.90
24412;DHT22;12544;46.760;15.942;2023-04-29T08:43:22;18.10;99.90
24412;DHT22;12544;46.760;15.942;2023-04-29T08:45:49;18.00;99.90
24412;DHT22;12544;46.760;15.942;2023-04-29T08:48:18;18.20;99.90
24412;DHT22;12544;46.760;15.942;2023-04-29T08:50:44;18.40;99.90
24412;DHT22;12544;46.760;15.942;2023-04-29T08:53:12;18.70;99.90
24412;DHT22;12544;46.760;15.942;2023-04-29T08:55:43;18.70;99.90
24412;DHT22;12544;46.760;15.942;2023-04-29T08:58:10;18.80;99.90
24412;DHT22;12544;46.760;15.942;2023-04-29T09:00:37;18.90;99.90
24412;DHT22;12544;46.760;15.942;2023-04-29T09:03:16;19.10;99.90
24412;DHT22;12544;46.760;15.942;2023-04-29T09:05:44;19.10;99.90
24412;DHT22;12544;46.760;15.942;2023-04-29T09:08:11;19.30;99.90
24412;DHT22;12544;46.760;15.942;2023-04-29T09:10:38;19.60;99.90
24412;DHT22;12544;46.760;15.942;2023-04-29T09:13:06;19.80;99.90
24412;DHT22;12544;46.760;15.942;2023-04-29T09:15:36;20.10;99.90
24412;DHT22;12544;46.760;15.942;2023-04-29T09:18:02;20.00;99.90
24412;DHT22;12544;46.760;15.942;2023-04-29T09:20:28;19.80;99.90
24412;DHT22;12544;46.760;15.942;2023-04-29T09:22:59;19.80;99.90
24412;DHT22;12544;46.760;15.942;2023-04-29T09:25:26;19.60;99.90
24412;DHT22;12544;46.760;15.942;2023-04-29T09:27:53;19.70;99.90
24412;DHT22;12544;46.760;15.942;2023-04-29T09:30:19;19.90;99.90
24412;DHT22;12544;46.760;15.942;2023-04-29T09:32:45;20.10;99.90
24412;DHT22;12544;46.760;15.942;2023-04-29T09:35:27;20.00;99.90
24412;DHT22;12544;46.760;15.942;2023-04-29T09:38:08;20.30;99.90
24412;DHT22;12544;46.760;15.942;2023-04-29T09:40:35;20.50;99.50
24412;DHT22;12544;46.760;15.942;2023-04-29T09:43:01;20.90;99.90
24412;DHT22;12544;46.760;15.942;2023-04-29T09:45:38;20.70;98.90
24412;DHT22;12544;46.760;15.942;2023-04-29T09:48:04;20.40;99.90
24412;DHT22;12544;46.760;15.942;2023-04-29T09:50:34;20.50;99.90
24412;DHT22;12544;46.760;15.942;2023-04-29T09:53:02;20.50;99.30
24412;DHT22;12544;46.760;15.942;2023-04-29T09:55:27;20.90;99.90
24412;DHT22;12544;46.760;15.942;2023-04-29T09:57:54;21.20;98.90
24412;DHT22;12544;46.760;15.942;2023-04-29T10:00:21;21.40;98.70
24412;DHT22;12544;46.760;15.942;2023-04-29T10:02:48;21.90;96.60
24412;DHT22;12544;46.760;15.942;2023-04-29T10:05:18;22.00;96.50
24412;DHT22;12544;46.760;15.942;2023-04-29T10:07:45;22.40;96.30
24412;DHT22;12544;46.760;15.942;2023-04-29T10:10:12;22.80;95.40
24412;DHT22;12544;46.760;15.942;2023-04-29T10:12:39;23.00;92.60
24412;DHT22;12544;46.760;15.942;2023-04-29T10:17:43;22.70;94.20
24412;DHT22;12544;46.760;15.942;2023-04-29T10:20:13;22.60;92.60
24412;DHT22;12544;46.760;15.942;2023-04-29T10:22:48;22.70;93.10
24412;DHT22;12544;46.760;15.942;2023-04-29T10:25:18;22.90;93.10
24412;DHT22;12544;46.760;15.942;2023-04-29T10:27:45;23.20;91.10
24412;DHT22;12544;46.760;15.942;2023-04-29T10:30:15;23.10;90.20
24412;DHT22;12544;46.760;15.942;2023-04-29T10:32:43;22.70;91.60
24412;DHT22;12544;46.760;15.942;2023-04-29T10:35:12;22.60;91.30
24412;DHT22;12544;46.760;15.942;2023-04-29T10:37:42;22.50;91.90
24412;DHT22;12544;46.760;15.942;2023-04-29T10:40:14;22.50;93.40
24412;DHT22;12544;46.760;15.942;2023-04-29T10:42:47;22.30;91.50
24412;DHT22;12544;46.760;15.942;2023-04-29T10:45:25;22.50;93.20
24412;DHT22;12544;46.760;15.942;2023-04-29T10:53:16;23.30;90.20
24412;DHT22;12544;46.760;15.942;2023-04-29T10:55:46;23.10;90.00
24412;DHT22;12544;46.760;15.942;2023-04-29T10:58:41;23.00;91.20
24412;DHT22;12544;46.760;15.942;2023-04-29T11:01:14;22.80;90.50
24412;DHT22;12544;46.760;15.942;2023-04-29T11:06:44;22.50;90.70
24412;DHT22;12544;46.760;15.942;2023-04-29T11:14:41;21.90;90.30
24412;DHT22;12544;46.760;15.942;2023-04-29T11:17:12;22.00;90.90
24412;DHT22;12544;46.760;15.942;2023-04-29T11:19:51;22.40;88.90
24412;DHT22;12544;46.760;15.942;2023-04-29T11:24:58;22.90;89.00
24412;DHT22;12544;46.760;15.942;2023-04-29T11:27:38;22.90;90.80
24412;DHT22;12544;46.760;15.942;2023-04-29T11:30:05;23.00;89.20
24412;DHT22;12544;46.760;15.942;2023-04-29T11:32:36;23.20;87.70
24412;DHT22;12544;46.760;15.942;2023-04-29T11:35:13;23.60;86.20
24412;DHT22;12544;46.760;15.942;2023-04-29T11:37:41;24.00;87.30
24412;DHT22;12544;46.760;15.942;2023-04-29T11:40:08;24.50;84.80
24412;DHT22;12544;46.760;15.942;2023-04-29T11:42:36;25.00;84.20
24412;DHT22;12544;46.760;15.942;2023-04-29T11:45:19;25.40;82.80
24412;DHT22;12544;46.760;15.942;2023-04-29T11:47:46;25.60;80.10
24412;DHT22;12544;46.760;15.942;2023-04-29T11:50:13;25.90;78.80
24412;DHT22;12544;46.760;15.942;2023-04-29T11:52:41;25.60;75.60
24412;DHT22;12544;46.760;15.942;2023-04-29T11:55:10;25.30;75.90
24412;DHT22;12544;46.760;15.942;2023-04-29T11:57:37;25.10;77.90
24412;DHT22;12544;46.760;15.942;2023-04-29T12:00:08;25.50;76.20
24412;DHT22;12544;46.760;15.942;2023-04-29T12:02:37;26.00;80.20
24412;DHT22;12544;46.760;15.942;2023-04-29T12:05:06;26.40;74.50
24412;DHT22;12544;46.760;15.942;2023-04-29T12:07:33;26.60;72.30
24412;DHT22;12544;46.760;15.942;2023-04-29T12:09:59;26.60;71.30
24412;DHT22;12544;46.760;15.942;2023-04-29T12:12:25;26.80;71.50
24412;DHT22;12544;46.760;15.942;2023-04-29T12:14:57;26.60;70.10
24412;DHT22;12544;46.760;15.942;2023-04-29T12:17:23;26.50;70.60
24412;DHT22;12544;46.760;15.942;2023-04-29T12:19:49;26.50;70.00
24412;DHT22;12544;46.760;15.942;2023-04-29T12:22:15;26.70;71.40
24412;DHT22;12544;46.760;15.942;2023-04-29T12:24:41;26.70;70.50
24412;DHT22;12544;46.760;15.942;2023-04-29T12:27:10;26.60;72.80
24412;DHT22;12544;46.760;15.942;2023-04-29T12:29:36;26.80;69.10
24412;DHT22;12544;46.760;15.942;2023-04-29T12:32:02;26.50;69.70
24412;DHT22;12544;46.760;15.942;2023-04-29T12:34:29;26.20;71.00
24412;DHT22;12544;46.760;15.942;2023-04-29T12:36:56;25.80;69.70
24412;DHT22;12544;46.760;15.942;2023-04-29T12:39:23;25.20;72.60
24412;DHT22;12544;46.760;15.942;2023-04-29T12:41:53;24.70;73.10
24412;DHT22;12544;46.760;15.942;2023-04-29T12:44:19;24.60;71.10
24412;DHT22;12544;46.760;15.942;2023-04-29T12:46:45;24.60;74.60
24412;DHT22;12544;46.760;15.942;2023-04-29T12:49:10;24.60;72.10
24412;DHT22;12544;46.760;15.942;2023-04-29T12:51:36;24.40;72.30
24412;DHT22;12544;46.760;15.942;2023-04-29T12:54:03;24.20;73.10
24412;DHT22;12544;46.760;15.942;2023-04-29T12:56:32;24.30;74.80
24412;DHT22;12544;46.760;15.942;2023-04-29T12:59:05;24.50;71.70
24412;DHT22;12544;46.760;15.942;2023-04-29T13:01:32;24.80;73.60
24412;DHT22;12544;46.760;15.942;2023-04-29T13:03:57;25.30;76.00
24412;DHT22;12544;46.760;15.942;2023-04-29T13:06:23;25.80;69.20
24412;DHT22;12544;46.760;15.942;2023-04-29T13:08:49;26.30;68.80
24412;DHT22;12544;46.760;15.942;2023-04-29T13:11:16;26.30;67.40
24412;DHT22;12544;46.760;15.942;2023-04-29T13:13:41;25.70;72.80
24412;DHT22;12544;46.760;15.942;2023-04-29T13:16:07;25.20;70.20
24412;DHT22;12544;46.760;15.942;2023-04-29T13:18:33;24.70;72.40
24412;DHT22;12544;46.760;15.942;2023-04-29T13:20:59;24.00;74.90
24412;DHT22;12544;46.760;15.942;2023-04-29T13:23:25;23.60;76.00
24412;DHT22;12544;46.760;15.942;2023-04-29T13:25:51;23.60;76.60
24412;DHT22;12544;46.760;15.942;2023-04-29T13:28:17;23.80;77.60
24412;DHT22;12544;46.760;15.942;2023-04-29T13:30:43;23.90;76.90
24412;DHT22;12544;46.760;15.942;2023-04-29T13:33:08;24.10;76.20
24412;DHT22;12544;46.760;15.942;2023-04-29T13:35:34;24.30;78.60
24412;DHT22;12544;46.760;15.942;2023-04-29T13:38:01;24.80;76.20
24412;DHT22;12544;46.760;15.942;2023-04-29T13:40:27;25.40;76.60
24412;DHT22;12544;46.760;15.942;2023-04-29T13:42:52;26.00;73.30
24412;DHT22;12544;46.760;15.942;2023-04-29T13:45:18;26.20;69.30
24412;DHT22;12544;46.760;15.942;2023-04-29T13:47:44;25.60;70.00
24412;DHT22;12544;46.760;15.942;2023-04-29T13:50:09;24.70;72.30
24412;DHT22;12544;46.760;15.942;2023-04-29T13:52:36;24.10;75.50
24412;DHT22;12544;46.760;15.942;2023-04-29T13:55:02;23.50;79.80
24412;DHT22;12544;46.760;15.942;2023-04-29T13:57:27;23.30;79.60
24412;DHT22;12544;46.760;15.942;2023-04-29T13:59:53;22.80;83.00
24412;DHT22;12544;46.760;15.942;2023-04-29T14:02:23;22.80;89.80
24412;DHT22;12544;46.760;15.942;2023-04-29T14:04:48;22.80;86.90
24412;DHT22;12544;46.760;15.942;2023-04-29T14:07:14;23.20;85.30
24412;DHT22;12544;46.760;15.942;2023-04-29T14:09:40;23.40;84.50
24412;DHT22;12544;46.760;15.942;2023-04-29T14:12:06;23.50;81.50
24412;DHT22;12544;46.760;15.942;2023-04-29T14:14:31;23.80;76.90
24412;DHT22;12544;46.760;15.942;2023-04-29T14:16:57;23.30;76.60
24412;DHT22;12544;46.760;15.942;2023-04-29T14:19:23;22.50;76.60
24412;DHT22;12544;46.760;15.942;2023-04-29T14:21:48;22.40;78.80
24412;DHT22;12544;46.760;15.942;2023-04-29T14:24:14;22.30;81.10
24412;DHT22;12544;46.760;15.942;2023-04-29T14:26:40;22.40;81.10
24412;DHT22;12544;46.760;15.942;2023-04-29T14:29:06;22.60;80.20
24412;DHT22;12544;46.760;15.942;2023-04-29T14:31:35;22.90;79.20
24412;DHT22;12544;46.760;15.942;2023-04-29T14:34:04;22.90;81.50
24412;DHT22;12544;46.760;15.942;2023-04-29T14:36:30;23.00;78.90
24412;DHT22;12544;46.760;15.942;2023-04-29T14:38:59;23.30;78.70
24412;DHT22;12544;46.760;15.942;2023-04-29T14:41:26;23.10;80.70
24412;DHT22;12544;46.760;15.942;2023-04-29T14:43:51;22.90;82.30
24412;DHT22;12544;46.760;15.942;2023-04-29T14:46:17;22.50;81.70
24412;DHT22;12544;46.760;15.942;2023-04-29T14:48:43;22.40;82.50
24412;DHT22;12544;46.760;15.942;2023-04-29T14:51:09;22.30;82.90
24412;DHT22;12544;46.760;15.942;2023-04-29T14:53:35;22.20;81.60
24412;DHT22;12544;46.760;15.942;2023-04-29T14:56:00;22.20;81.60
24412;DHT22;12544;46.760;15.942;2023-04-29T14:58:26;22.30;80.90
24412;DHT22;12544;46.760;15.942;2023-04-29T15:00:52;22.50;81.80
24412;DHT22;12544;46.760;15.942;2023-04-29T15:03:18;22.70;82.80
24412;DHT22;12544;46.760;15.942;2023-04-29T15:05:43;22.80;84.10
24412;DHT22;12544;46.760;15.942;2023-04-29T15:08:10;22.90;79.70
24412;DHT22;12544;46.760;15.942;2023-04-29T15:10:35;22.90;79.20
24412;DHT22;12544;46.760;15.942;2023-04-29T15:13:02;22.90;79.40
24412;DHT22;12544;46.760;15.942;2023-04-29T15:15:28;22.90;80.90
24412;DHT22;12544;46.760;15.942;2023-04-29T15:17:53;22.80;82.00
24412;DHT22;12544;46.760;15.942;2023-04-29T15:20:19;22.70;84.70
24412;DHT22;12544;46.760;15.942;2023-04-29T15:22:45;22.50;88.00
24412;DHT22;12544;46.760;15.942;2023-04-29T15:25:11;22.10;84.60
24412;DHT22;12544;46.760;15.942;2023-04-29T15:27:37;21.80;86.30
24412;DHT22;12544;46.760;15.942;2023-04-29T15:30:04;21.60;87.80
24412;DHT22;12544;46.760;15.942;2023-04-29T15:32:31;21.40;87.70
24412;DHT22;12544;46.760;15.942;2023-04-29T15:35:00;21.00;85.40
24412;DHT22;12544;46.760;15.942;2023-04-29T15:37:27;20.70;88.10
24412;DHT22;12544;46.760;15.942;2023-04-29T15:40:02;20.70;88.30
24412;DHT22;12544;46.760;15.942;2023-04-29T15:42:29;20.50;89.30
24412;DHT22;12544;46.760;15.942;2023-04-29T15:44:55;20.20;91.50
24412;DHT22;12544;46.760;15.942;2023-04-29T15:47:20;20.10;92.60
24412;DHT22;12544;46.760;15.942;2023-04-29T15:49:47;19.90;94.10
24412;DHT22;12544;46.760;15.942;2023-04-29T15:52:14;19.70;94.30